createdAt,value
2018-05-24T00:00:02.080Z,97405.12
2018-05-24T00:02:29.516Z,97408.28
2018-05-24T00:04:56.952Z,97402.52
2018-05-24T00:07:24.342Z,97401.37
2018-05-24T00:09:51.992Z,97391.02
2018-05-24T00:12:19.481Z,97389.18
2018-05-24T00:14:46.967Z,97392.72
2018-05-24T00:17:14.575Z,97389.00
2018-05-24T00:19:42.230Z,97394.24
2018-05-24T00:22:09.651Z,97394.59
2018-05-24T00:24:37.085Z,97389.45
2018-05-24T00:27:04.531Z,97397.23
2018-05-24T00:29:31.987Z,97393.27
2018-05-24T00:31:59.445Z,97399.77
2018-05-24T00:34:26.892Z,97396.09
2018-05-24T00:36:56.119Z,97400.56
2018-05-24T00:39:23.725Z,97399.97
2018-05-24T00:41:51.122Z,97409.13
2018-05-24T00:44:18.528Z,97409.80
2018-05-24T00:46:46.100Z,97403.03
2018-05-24T00:49:13.616Z,97413.86
2018-05-24T00:51:41.075Z,97403.44
2018-05-24T00:54:08.475Z,97398.72
2018-05-24T00:56:36.769Z,97395.05
2018-05-24T00:59:07.044Z,97401.71
2018-05-24T01:01:34.525Z,97400.32
2018-05-24T01:04:01.956Z,97402.05
2018-05-24T01:06:29.396Z,97398.89
2018-05-24T01:08:56.865Z,97400.88
2018-05-24T01:11:24.400Z,97402.92
2018-05-24T01:13:51.866Z,97393.69
2018-05-24T01:16:19.348Z,97400.05
2018-05-24T01:18:46.938Z,97402.37
2018-05-24T01:21:15.483Z,97412.37
2018-05-24T01:23:43.148Z,97415.00
2018-05-24T01:26:11.606Z,97414.97
2018-05-24T01:28:39.051Z,97420.35
2018-05-24T01:31:06.476Z,97421.42
2018-05-24T01:33:34.379Z,97421.48
2018-05-24T01:36:01.819Z,97420.53
2018-05-24T01:38:29.281Z,97413.97
2018-05-24T01:40:56.756Z,97420.73
2018-05-24T01:43:24.227Z,97431.10
2018-05-24T01:45:51.932Z,97430.28
2018-05-24T01:48:19.368Z,97438.25
2018-05-24T01:50:46.872Z,97436.47
2018-05-24T01:53:14.312Z,97445.74
2018-05-24T01:55:41.774Z,97445.67
2018-05-24T01:58:10.355Z,97443.86
2018-05-24T02:00:38.588Z,97442.95
2018-05-24T02:03:06.873Z,97444.30
2018-05-24T02:05:34.274Z,97448.40
2018-05-24T02:08:01.780Z,97455.25
2018-05-24T02:10:29.279Z,97446.20
2018-05-24T02:12:56.706Z,97436.12
2018-05-24T02:15:24.109Z,97438.45
2018-05-24T02:17:51.551Z,97441.73
2018-05-24T02:20:20.339Z,97444.03
2018-05-24T02:22:47.869Z,97443.62
2018-05-24T02:25:16.392Z,97435.98
2018-05-24T02:27:43.836Z,97441.27
2018-05-24T02:30:11.286Z,97441.52
2018-05-24T02:32:38.765Z,97431.78
2018-05-24T02:35:07.224Z,97440.24
2018-05-24T02:37:34.916Z,97433.94
2018-05-24T02:40:02.443Z,97439.37
2018-05-24T02:42:29.901Z,97432.67
2018-05-24T02:44:57.739Z,97434.92
2018-05-24T02:47:25.153Z,97431.03
2018-05-24T02:49:52.598Z,97427.24
2018-05-24T02:52:20.044Z,97434.31
2018-05-24T02:54:50.855Z,97435.92
2018-05-24T02:57:18.259Z,97432.45
2018-05-24T02:59:45.853Z,97428.42
2018-05-24T03:02:13.322Z,97421.61
2018-05-24T03:04:43.075Z,97425.47
2018-05-24T03:07:10.496Z,97421.86
2018-05-24T03:09:37.959Z,97420.22
2018-05-24T03:12:05.393Z,97422.08
2018-05-24T03:14:32.843Z,97411.16
2018-05-24T03:17:00.312Z,97411.64
2018-05-24T03:19:27.764Z,97413.03
2018-05-24T03:21:55.344Z,97407.92
2018-05-24T03:24:22.820Z,97403.66
2018-05-24T03:26:50.223Z,97407.00
2018-05-24T03:29:18.454Z,97405.66
2018-05-24T03:31:46.120Z,97400.23
2018-05-24T03:34:14.214Z,97399.56
2018-05-24T03:36:41.654Z,97396.83
2018-05-24T03:39:09.079Z,97400.94
2018-05-24T03:41:36.553Z,97400.04
2018-05-24T03:44:03.996Z,97405.82
2018-05-24T03:46:32.404Z,97398.44
2018-05-24T03:48:59.985Z,97397.44
2018-05-24T03:51:27.441Z,97401.92
2018-05-24T03:53:54.889Z,97394.50
2018-05-24T03:56:22.279Z,97396.40
2018-05-24T03:58:53.398Z,97390.52
2018-05-24T04:01:32.697Z,97393.86
2018-05-24T04:04:11.850Z,97393.25
2018-05-24T04:06:39.314Z,97396.47
2018-05-24T04:09:06.774Z,97396.95
2018-05-24T04:11:34.186Z,97399.36
2018-05-24T04:14:01.597Z,97391.88
2018-05-24T04:16:29.030Z,97398.30
2018-05-24T04:18:56.463Z,97391.52
2018-05-24T04:21:23.910Z,97393.27
2018-05-24T04:23:51.339Z,97387.26
2018-05-24T04:26:18.832Z,97386.99
2018-05-24T04:28:46.282Z,97384.98
2018-05-24T04:31:15.115Z,97391.81
2018-05-24T04:33:43.388Z,97392.89
2018-05-24T04:36:10.854Z,97396.20
2018-05-24T04:38:38.306Z,97402.20
2018-05-24T04:41:05.764Z,97403.52
2018-05-24T04:43:33.228Z,97405.09
2018-05-24T04:46:00.681Z,97401.28
2018-05-24T04:48:30.795Z,97405.55
2018-05-24T04:50:58.308Z,97404.48
2018-05-24T04:53:25.819Z,97406.62
2018-05-24T04:55:53.304Z,97407.88
2018-05-24T04:58:20.723Z,97410.64
2018-05-24T05:00:48.160Z,97406.59
2018-05-24T05:03:15.582Z,97407.15
2018-05-24T05:05:43.047Z,97403.45
2018-05-24T05:08:10.466Z,97399.80
2018-05-24T05:10:37.988Z,97409.17
2018-05-24T05:13:05.441Z,97406.72
2018-05-24T05:15:32.884Z,97400.19
2018-05-24T05:18:00.321Z,97402.01
2018-05-24T05:20:27.768Z,97399.83
2018-05-24T05:22:55.649Z,97394.56
2018-05-24T05:25:23.103Z,97387.41
2018-05-24T05:27:50.576Z,97391.58
2018-05-24T05:30:18.132Z,97390.95
2018-05-24T05:32:45.623Z,97391.70
2018-05-24T05:35:17.341Z,97396.23
2018-05-24T05:37:44.771Z,97393.20
2018-05-24T05:40:12.919Z,97394.37
2018-05-24T05:42:40.357Z,97395.46
2018-05-24T05:45:07.815Z,97398.03
2018-05-24T05:47:35.293Z,97396.12
2018-05-24T05:50:02.727Z,97391.23
2018-05-24T05:52:30.176Z,97388.45
2018-05-24T05:54:57.638Z,97390.47
2018-05-24T05:57:25.043Z,97389.20
2018-05-24T05:59:52.501Z,97392.22
2018-05-24T06:02:19.989Z,97393.77
2018-05-24T06:04:47.444Z,97404.02
2018-05-24T06:07:14.899Z,97409.39
2018-05-24T06:09:42.387Z,97406.14
2018-05-24T06:12:10.375Z,97412.23
2018-05-24T06:14:37.958Z,97411.28
2018-05-24T06:17:05.646Z,97414.25
2018-05-24T06:19:33.769Z,97408.98
2018-05-24T06:22:01.220Z,97418.58
2018-05-24T06:24:28.647Z,97419.25
2018-05-24T06:26:56.608Z,97417.52
2018-05-24T06:29:24.077Z,97421.34
2018-05-24T06:31:51.546Z,97422.91
2018-05-24T06:34:19.192Z,97424.17
2018-05-24T06:36:46.658Z,97431.77
2018-05-24T06:39:14.117Z,97425.47
2018-05-24T06:41:41.555Z,97427.55
2018-05-24T06:44:09.310Z,97440.77
2018-05-24T06:46:36.799Z,97432.94
2018-05-24T06:49:04.615Z,97430.98
2018-05-24T06:51:32.065Z,97432.34
2018-05-24T06:53:59.544Z,97429.25
2018-05-24T06:56:27.785Z,97425.23
2018-05-24T06:58:55.303Z,97430.88
2018-05-24T07:01:22.740Z,97428.56
2018-05-24T07:03:50.185Z,97427.11
2018-05-24T07:06:17.648Z,97421.28
2018-05-24T07:08:45.072Z,97417.68
2018-05-24T07:11:12.635Z,97416.70
2018-05-24T07:13:41.638Z,97414.37
2018-05-24T07:16:11.875Z,97408.69
2018-05-24T07:18:40.199Z,97412.75
2018-05-24T07:21:07.608Z,97414.58
2018-05-24T07:23:36.283Z,97418.02
2018-05-24T07:26:03.759Z,97420.08
2018-05-24T07:28:31.238Z,97419.54
2018-05-24T07:30:58.771Z,97422.59
2018-05-24T07:33:26.224Z,97425.79
2018-05-24T07:35:53.697Z,97421.62
2018-05-24T07:38:21.181Z,97426.96
2018-05-24T07:40:48.645Z,97419.22
2018-05-24T07:43:16.075Z,97415.39
2018-05-24T07:45:43.516Z,97420.27
2018-05-24T07:48:11.075Z,97415.88
2018-05-24T07:50:38.875Z,97418.64
2018-05-24T07:53:06.351Z,97416.87
2018-05-24T07:55:33.911Z,97416.22
2018-05-24T07:58:01.451Z,97408.78
2018-05-24T08:00:28.852Z,97410.50
2018-05-24T08:02:56.316Z,97407.97
2018-05-24T08:05:23.927Z,97409.11
2018-05-24T08:07:52.457Z,97404.82
2018-05-24T08:10:19.862Z,97405.94
2018-05-24T08:12:47.346Z,97406.73
2018-05-24T08:15:15.316Z,97403.91
2018-05-24T08:17:42.708Z,97405.08
2018-05-24T08:20:10.115Z,97399.58
2018-05-24T08:22:38.273Z,97398.01
2018-05-24T08:25:05.616Z,97388.84
2018-05-24T08:27:33.055Z,97391.30
2018-05-24T08:30:00.578Z,97386.63
2018-05-24T08:32:28.019Z,97386.71
2018-05-24T08:34:55.689Z,97394.41
2018-05-24T08:37:23.136Z,97385.98
2018-05-24T08:39:50.640Z,97391.56
2018-05-24T08:42:19.294Z,97386.97
2018-05-24T08:44:46.968Z,97391.40
2018-05-24T08:47:14.574Z,97388.05
2018-05-24T08:49:41.971Z,97390.56
2018-05-24T08:52:09.440Z,97387.80
2018-05-24T08:54:39.516Z,97388.47
2018-05-24T08:57:06.914Z,97393.42
2018-05-24T08:59:34.351Z,97387.39
2018-05-24T09:02:01.930Z,97383.80
2018-05-24T09:04:31.037Z,97389.73
2018-05-24T09:06:58.479Z,97392.56
2018-05-24T09:09:25.879Z,97384.22
2018-05-24T09:11:53.298Z,97388.81
2018-05-24T09:14:20.758Z,97390.23
2018-05-24T09:16:48.209Z,97389.58
2018-05-24T09:19:15.634Z,97390.84
2018-05-24T09:21:43.137Z,97388.29
2018-05-24T09:24:10.828Z,97384.94
2018-05-24T09:26:38.313Z,97377.47
2018-05-24T09:29:05.791Z,97366.66
2018-05-24T09:31:34.397Z,97368.79
2018-05-24T09:34:01.906Z,97369.07
2018-05-24T09:36:29.332Z,97362.02
2018-05-24T09:38:56.746Z,97359.83
2018-05-24T09:41:25.366Z,97364.21
2018-05-24T09:43:52.843Z,97356.02
2018-05-24T09:46:20.404Z,97360.50
2018-05-24T09:48:47.808Z,97358.06
2018-05-24T09:51:15.298Z,97356.97
2018-05-24T09:53:42.693Z,97356.84
2018-05-24T09:56:11.291Z,97352.66
2018-05-24T09:58:38.324Z,97354.05
2018-05-24T10:01:06.508Z,97347.93
2018-05-24T10:03:33.951Z,97346.40
2018-05-24T10:06:03.395Z,97344.12
2018-05-24T10:08:30.401Z,97341.77
2018-05-24T10:10:57.859Z,97335.83
2018-05-24T10:13:25.323Z,97334.52
2018-05-24T10:15:53.707Z,97336.55
2018-05-24T10:18:21.192Z,97339.14
2018-05-24T10:20:48.147Z,97330.98
2018-05-24T10:23:15.683Z,97332.65
2018-05-24T10:25:43.156Z,97329.92
2018-05-24T10:28:10.581Z,97324.91
2018-05-24T10:30:38.084Z,97321.81
2018-05-24T10:33:05.510Z,97316.19
2018-05-24T10:35:32.988Z,97317.58
2018-05-24T10:38:00.561Z,97314.62
2018-05-24T10:40:27.992Z,97304.76
2018-05-24T10:42:55.492Z,97305.92
2018-05-24T10:45:22.617Z,97298.81
2018-05-24T10:47:49.687Z,97296.59
2018-05-24T10:50:16.697Z,97288.59
2018-05-24T10:52:43.715Z,97289.47
2018-05-24T10:55:10.718Z,97281.86
2018-05-24T10:57:37.698Z,97285.30
2018-05-24T11:00:04.731Z,97286.47
2018-05-24T11:02:31.707Z,97278.97
2018-05-24T11:04:59.201Z,97282.34
2018-05-24T11:07:26.226Z,97277.06
2018-05-24T11:09:54.602Z,97274.20
2018-05-24T11:12:22.107Z,97260.87
2018-05-24T11:14:51.658Z,97265.81
2018-05-24T11:17:19.128Z,97266.70
2018-05-24T11:19:46.643Z,97255.47
2018-05-24T11:22:18.562Z,97255.77
2018-05-24T11:24:46.004Z,97245.31
2018-05-24T11:27:12.950Z,97249.45
2018-05-24T11:29:39.955Z,97249.87
2018-05-24T11:32:08.399Z,97246.73
2018-05-24T11:34:35.309Z,97244.70
2018-05-24T11:37:02.311Z,97241.91
2018-05-24T11:39:29.769Z,97242.92
2018-05-24T11:42:00.366Z,97239.27
2018-05-24T11:44:27.938Z,97241.60
2018-05-24T11:46:55.980Z,97241.42
2018-05-24T11:49:23.451Z,97247.28
2018-05-24T11:51:50.938Z,97235.08
2018-05-24T11:54:18.359Z,97236.72
2018-05-24T11:56:45.854Z,97227.08
2018-05-24T11:59:13.357Z,97227.34
2018-05-24T12:01:41.941Z,97224.67
2018-05-24T12:04:09.464Z,97229.01
2018-05-24T12:06:36.918Z,97227.36
2018-05-24T12:09:04.348Z,97221.31
2018-05-24T12:11:31.805Z,97215.74
2018-05-24T12:13:59.243Z,97211.85
2018-05-24T12:16:26.802Z,97217.05
2018-05-24T12:18:54.272Z,97208.00
2018-05-24T12:21:21.842Z,97211.08
2018-05-24T12:23:49.384Z,97212.52
2018-05-24T12:26:16.836Z,97211.36
2018-05-24T12:28:44.321Z,97201.36
2018-05-24T12:31:11.781Z,97208.91
2018-05-24T12:33:39.216Z,97207.16
2018-05-24T12:36:06.614Z,97200.21
2018-05-24T12:38:34.102Z,97200.12
2018-05-24T12:41:01.721Z,97199.35
2018-05-24T12:43:29.173Z,97203.81
2018-05-24T12:45:56.614Z,97193.03
2018-05-24T12:48:24.010Z,97190.06
2018-05-24T12:50:51.493Z,97187.42
2018-05-24T12:53:18.510Z,97185.36
2018-05-24T12:55:45.542Z,97168.16
2018-05-24T12:58:13.285Z,97180.28
2018-05-24T13:00:40.724Z,97180.50
2018-05-24T13:03:08.160Z,97173.95
2018-05-24T13:05:35.652Z,97176.13
2018-05-24T13:08:03.749Z,97172.61
2018-05-24T13:10:31.201Z,97170.84
2018-05-24T13:12:58.671Z,97171.68
2018-05-24T13:15:26.132Z,97163.86
2018-05-24T13:17:53.583Z,97165.44
2018-05-24T13:20:21.043Z,97165.42
2018-05-24T13:22:48.538Z,97167.92
2018-05-24T13:25:15.970Z,97164.20
2018-05-24T13:27:44.355Z,97158.72
2018-05-24T13:30:11.786Z,97150.51
2018-05-24T13:32:39.269Z,97153.22
2018-05-24T13:35:07.685Z,97155.28
2018-05-24T13:37:35.115Z,97154.56
2018-05-24T13:40:02.215Z,97146.99
2018-05-24T13:42:29.173Z,97148.85
2018-05-24T13:44:56.147Z,97141.86
2018-05-24T13:47:23.313Z,97143.80
2018-05-24T13:49:50.323Z,97146.67
2018-05-24T13:52:17.454Z,97136.84
2018-05-24T13:54:44.475Z,97139.53
2018-05-24T13:57:11.428Z,97134.13
2018-05-24T13:59:38.412Z,97139.12
2018-05-24T14:02:06.028Z,97136.02
2018-05-24T14:04:33.111Z,97134.66
2018-05-24T14:07:00.049Z,97131.42
2018-05-24T14:09:27.107Z,97126.13
2018-05-24T14:11:54.215Z,97126.84
2018-05-24T14:14:21.218Z,97129.35
2018-05-24T14:16:48.269Z,97131.22
2018-05-24T14:19:15.397Z,97122.10
2018-05-24T14:21:42.408Z,97124.19
2018-05-24T14:24:09.341Z,97115.16
2018-05-24T14:26:37.527Z,97104.69
2018-05-24T14:29:04.516Z,97113.36
2018-05-24T14:31:32.724Z,97113.77
2018-05-24T14:34:00.546Z,97109.80
2018-05-24T14:36:27.533Z,97105.85
2018-05-24T14:38:54.538Z,97108.42
2018-05-24T14:41:21.502Z,97103.75
2018-05-24T14:43:48.456Z,97102.84
2018-05-24T14:46:15.472Z,97105.30
2018-05-24T14:48:43.064Z,97105.20
2018-05-24T14:51:10.063Z,97101.16
2018-05-24T14:53:37.088Z,97098.89
2018-05-24T14:56:04.030Z,97096.48
2018-05-24T14:58:31.034Z,97093.81
2018-05-24T15:00:58.141Z,97080.34
2018-05-24T15:03:25.091Z,97087.47
2018-05-24T15:05:52.138Z,97088.63
2018-05-24T15:08:19.371Z,97091.87
2018-05-24T15:10:47.495Z,97089.45
2018-05-24T15:16:08.315Z,97084.98
2018-05-24T15:18:35.347Z,97086.95
2018-05-24T15:21:02.329Z,97090.45
2018-05-24T15:23:29.316Z,97082.89
2018-05-24T15:25:57.055Z,97084.55
2018-05-24T15:28:24.078Z,97090.05
2018-05-24T15:30:51.697Z,97084.59
2018-05-24T15:33:18.721Z,97086.43
2018-05-24T15:35:46.208Z,97084.57
2018-05-24T15:38:14.303Z,97081.75
2018-05-24T15:40:41.763Z,97083.19
2018-05-24T15:43:09.200Z,97085.59
2018-05-24T15:45:37.451Z,97083.01
2018-05-24T15:48:06.210Z,97082.91
2018-05-24T15:50:33.723Z,97082.07
2018-05-24T15:53:01.215Z,97081.34
2018-05-24T15:55:28.702Z,97085.06
2018-05-24T15:57:56.215Z,97076.05
2018-05-24T16:00:24.323Z,97073.05
2018-05-24T16:02:51.882Z,97073.99
2018-05-24T16:05:19.322Z,97068.39
2018-05-24T16:07:46.786Z,97072.63
2018-05-24T16:10:14.316Z,97082.98
2018-05-24T16:12:41.728Z,97074.89
2018-05-24T16:15:09.247Z,97072.42
2018-05-24T16:17:36.712Z,97066.41
2018-05-24T16:20:04.186Z,97063.18
2018-05-24T16:22:31.739Z,97063.47
2018-05-24T16:24:59.175Z,97065.44
2018-05-24T16:27:26.728Z,97069.98
2018-05-24T16:29:54.153Z,97068.06
2018-05-24T16:32:21.957Z,97062.02
2018-05-24T16:34:49.388Z,97060.65
2018-05-24T16:37:19.161Z,97063.17
2018-05-24T16:39:46.671Z,97065.37
2018-05-24T16:42:14.075Z,97072.07
2018-05-24T16:44:41.519Z,97066.27
2018-05-24T16:47:09.048Z,97061.03
2018-05-24T16:49:36.979Z,97064.02
2018-05-24T16:52:04.637Z,97059.57
2018-05-24T16:54:32.148Z,97056.55
2018-05-24T16:56:59.549Z,97057.90
2018-05-24T16:59:26.954Z,97053.15
2018-05-24T17:01:54.754Z,97054.94
2018-05-24T17:04:22.340Z,97054.34
2018-05-24T17:06:49.799Z,97060.84
2018-05-24T17:09:17.211Z,97062.21
2018-05-24T17:11:44.681Z,97063.25
2018-05-24T17:14:12.145Z,97055.41
2018-05-24T17:16:39.599Z,97057.81
2018-05-24T17:19:07.128Z,97068.66
2018-05-24T17:21:34.605Z,97068.52
2018-05-24T17:24:02.343Z,97067.09
2018-05-24T17:29:08.168Z,97068.84
2018-05-24T17:31:35.668Z,97080.38
2018-05-24T17:34:03.276Z,97078.09
2018-05-24T17:36:30.703Z,97073.57
2018-05-24T17:38:58.241Z,97081.16
2018-05-24T17:41:26.156Z,97080.78
2018-05-24T17:43:53.985Z,97084.42
2018-05-24T17:46:21.447Z,97082.41
2018-05-24T17:48:48.905Z,97084.94
2018-05-24T17:51:16.344Z,97085.80
2018-05-24T17:53:43.818Z,97087.70
2018-05-24T17:56:11.246Z,97077.38
2018-05-24T17:58:38.679Z,97080.77
2018-05-24T18:01:06.104Z,97077.16
2018-05-24T18:03:33.520Z,97079.35
2018-05-24T18:06:01.033Z,97076.91
2018-05-24T18:08:28.467Z,97081.92
2018-05-24T18:10:55.900Z,97079.00
2018-05-24T18:13:25.535Z,97076.72
2018-05-24T18:15:52.995Z,97070.00
2018-05-24T18:18:21.882Z,97072.36
2018-05-24T18:20:49.288Z,97078.73
2018-05-24T18:23:16.755Z,97078.26
2018-05-24T18:25:44.205Z,97085.14
2018-05-24T18:28:11.669Z,97081.43
2018-05-24T18:30:39.167Z,97087.98
2018-05-24T18:33:06.729Z,97092.64
2018-05-24T18:35:34.734Z,97094.41
2018-05-24T18:38:02.234Z,97096.00
2018-05-24T18:40:29.732Z,97092.86
2018-05-24T18:42:57.359Z,97093.59
2018-05-24T18:45:24.936Z,97101.67
2018-05-24T18:47:52.481Z,97106.23
2018-05-24T18:50:19.917Z,97101.86
2018-05-24T18:52:47.371Z,97101.67
2018-05-24T18:55:14.851Z,97113.42
2018-05-24T18:57:43.211Z,97105.81
2018-05-24T19:00:10.657Z,97108.16
2018-05-24T19:02:38.145Z,97110.73
2018-05-24T19:05:05.626Z,97114.73
2018-05-24T19:07:33.073Z,97123.09
2018-05-24T19:10:00.544Z,97126.80
2018-05-24T19:12:28.933Z,97136.02
2018-05-24T19:14:56.401Z,97139.22
2018-05-24T19:17:23.874Z,97141.75
2018-05-24T19:19:51.349Z,97146.32
2018-05-24T19:22:18.820Z,97147.19
2018-05-24T19:24:46.259Z,97152.18
2018-05-24T19:27:13.740Z,97152.86
2018-05-24T19:29:41.255Z,97150.64
2018-05-24T19:32:09.336Z,97154.38
2018-05-24T19:34:38.396Z,97158.80
2018-05-24T19:37:05.876Z,97170.78
2018-05-24T19:39:33.405Z,97183.20
2018-05-24T19:42:04.657Z,97177.86
2018-05-24T19:44:32.099Z,97181.87
2018-05-24T19:46:59.557Z,97187.27
2018-05-24T19:49:28.622Z,97189.28
2018-05-24T19:51:56.225Z,97194.05
2018-05-24T19:54:23.635Z,97195.91
2018-05-24T19:56:51.141Z,97196.22
2018-05-24T19:59:18.551Z,97204.02
2018-05-24T20:01:46.049Z,97210.05
2018-05-24T20:04:13.521Z,97212.37
2018-05-24T20:06:41.835Z,97213.39
2018-05-24T20:09:09.309Z,97206.34
2018-05-24T20:11:36.802Z,97207.30
2018-05-24T20:14:04.258Z,97207.03
2018-05-24T20:16:31.779Z,97211.71
2018-05-24T20:18:59.342Z,97207.86
2018-05-24T20:21:28.124Z,97222.05
2018-05-24T20:23:55.519Z,97227.91
2018-05-24T20:26:26.795Z,97230.76
2018-05-24T20:28:54.323Z,97226.39
2018-05-24T20:31:21.723Z,97235.23
2018-05-24T20:33:49.144Z,97233.05
2018-05-24T20:36:17.375Z,97233.13
2018-05-24T20:38:44.765Z,97226.56
2018-05-24T20:41:12.279Z,97233.39
2018-05-24T20:43:39.765Z,97233.13
2018-05-24T20:46:07.228Z,97233.87
2018-05-24T20:48:35.663Z,97242.78
2018-05-24T20:51:03.188Z,97237.53
2018-05-24T20:53:30.596Z,97237.88
2018-05-24T20:55:58.113Z,97232.64
2018-05-24T20:58:25.579Z,97240.28
2018-05-24T21:00:53.099Z,97246.38
2018-05-24T21:03:20.573Z,97239.55
2018-05-24T21:05:48.959Z,97241.91
2018-05-24T21:08:17.233Z,97239.49
2018-05-24T21:10:45.037Z,97238.49
2018-05-24T21:13:12.548Z,97246.48
2018-05-24T21:15:40.059Z,97240.72
2018-05-24T21:18:07.566Z,97245.38
2018-05-24T21:20:34.976Z,97246.27
2018-05-24T21:23:02.445Z,97243.17
2018-05-24T21:25:31.077Z,97244.14
2018-05-24T21:27:58.516Z,97242.06
2018-05-24T21:30:26.010Z,97244.55
2018-05-24T21:32:53.473Z,97242.86
2018-05-24T21:35:20.930Z,97239.59
2018-05-24T21:37:48.496Z,97246.02
2018-05-24T21:40:15.936Z,97248.70
2018-05-24T21:42:44.204Z,97252.61
2018-05-24T21:45:11.625Z,97253.13
2018-05-24T21:47:39.082Z,97253.09
2018-05-24T21:50:06.529Z,97254.42
2018-05-24T21:52:33.983Z,97258.78
2018-05-24T21:55:01.437Z,97255.92
2018-05-24T21:57:28.942Z,97255.02
2018-05-24T21:59:56.387Z,97250.84
2018-05-24T22:02:23.934Z,97259.07
2018-05-24T22:04:51.409Z,97261.30
2018-05-24T22:07:18.876Z,97260.21
2018-05-24T22:09:46.352Z,97261.52
2018-05-24T22:12:13.858Z,97254.91
2018-05-24T22:14:41.282Z,97257.32
2018-05-24T22:17:08.722Z,97261.23
2018-05-24T22:19:36.135Z,97255.31
2018-05-24T22:22:03.569Z,97253.05
2018-05-24T22:24:31.026Z,97255.31
2018-05-24T22:26:58.444Z,97252.81
2018-05-24T22:29:26.054Z,97254.89
2018-05-24T22:31:53.476Z,97248.53
2018-05-24T22:34:20.875Z,97251.61
2018-05-24T22:36:48.433Z,97261.45
2018-05-24T22:39:15.899Z,97259.67
2018-05-24T22:41:43.325Z,97256.11
2018-05-24T22:44:10.758Z,97251.73
2018-05-24T22:46:46.756Z,97245.33
2018-05-24T22:49:14.998Z,97254.12
2018-05-24T22:51:43.071Z,97251.66
2018-05-24T22:54:10.579Z,97248.07
2018-05-24T22:56:38.945Z,97247.19
2018-05-24T22:59:06.339Z,97244.13
2018-05-24T23:01:34.878Z,97242.11
2018-05-24T23:04:03.309Z,97250.10
2018-05-24T23:06:31.581Z,97240.60
2018-05-24T23:08:59.077Z,97241.84
2018-05-24T23:11:26.515Z,97239.64
2018-05-24T23:13:53.921Z,97240.98
2018-05-24T23:16:21.321Z,97245.80
2018-05-24T23:18:48.763Z,97239.30
2018-05-24T23:21:16.200Z,97239.15
2018-05-24T23:23:43.631Z,97236.94
2018-05-24T23:26:11.069Z,97231.63
2018-05-24T23:28:38.486Z,97232.37
2018-05-24T23:31:05.954Z,97230.89
2018-05-24T23:33:34.107Z,97229.97
2018-05-24T23:36:01.516Z,97227.31
2018-05-24T23:38:28.960Z,97227.67
2018-05-24T23:40:56.413Z,97227.45
2018-05-24T23:43:25.073Z,97234.25
2018-05-24T23:45:52.547Z,97230.81
2018-05-24T23:48:22.481Z,97235.66
2018-05-24T23:50:49.925Z,97239.42
2018-05-24T23:53:17.399Z,97241.28
2018-05-24T23:55:45.807Z,97246.69
2018-05-24T23:58:13.259Z,97251.01
